Time;durP1;ratioP1;P1;durP2;ratioP2;P2;SDS_P1;SDS_P2;PMS_P1;PMS_P2;Temp;Humidity;BMP_temperature;BMP_pressure;BME280_temperature;BME280_humidity;BME280_pressure;Samples;Min_cycle;Max_cycle;Signal;HPM_P1;HPM_P2
2022/06/18 00:00:44;;;;;;;5.45;3.60;;;;;;;14.62;73.98;101226.20;1908539;75;21039;-57
2022/06/18 00:03:13;;;;;;;5.50;3.22;;;;;;;14.56;74.20;101226.47;1912751;75;21563;-59
2022/06/18 00:05:43;;;;;;;6.25;3.40;;;;;;;14.50;74.34;101226.30;1912892;75;21132;-58
2022/06/18 00:08:14;;;;;;;5.10;2.55;;;;;;;14.49;73.99;101227.22;1912675;75;21055;-58
2022/06/18 00:10:44;;;;;;;6.87;3.80;;;;;;;14.46;73.78;101226.91;1912693;75;21074;-58
2022/06/18 00:16:05;;;;;;;7.67;3.30;;;;;;;14.44;74.36;101218.18;1912602;75;21121;-58
2022/06/18 00:18:33;;;;;;;4.33;2.45;;;;;;;14.37;74.84;101221.20;1912592;75;21462;-58
2022/06/18 00:21:04;;;;;;;9.00;3.52;;;;;;;14.34;74.52;101216.88;1912710;75;21047;-58
2022/06/18 00:23:32;;;;;;;8.95;3.05;;;;;;;14.33;74.52;101215.19;1912594;75;21013;-57
2022/06/18 00:26:01;;;;;;;4.67;3.22;;;;;;;14.29;74.55;101221.09;1912565;75;21050;-58
2022/06/18 00:28:32;;;;;;;6.20;2.92;;;;;;;14.28;74.42;101225.12;1912735;75;21116;-58
2022/06/18 00:31:01;;;;;;;8.88;4.60;;;;;;;14.25;74.53;101221.29;1912688;75;21116;-58
2022/06/18 00:33:30;;;;;;;10.63;6.00;;;;;;;14.24;74.65;101227.06;1912792;75;21039;-58
2022/06/18 00:36:02;;;;;;;8.13;4.22;;;;;;;14.21;74.80;101224.55;1912572;75;21030;-59
2022/06/18 00:38:34;;;;;;;5.08;3.35;;;;;;;14.17;75.29;101222.98;1912682;75;21031;-58
2022/06/18 00:41:04;;;;;;;5.42;3.05;;;;;;;14.13;75.50;101220.08;1912830;75;21130;-57
2022/06/18 00:43:44;;;;;;;7.55;3.30;;;;;;;14.12;75.23;101215.70;1912577;75;21171;-57
2022/06/18 00:46:46;;;;;;;5.28;3.75;;;;;;;14.12;75.16;101219.67;1912603;75;21160;-58
2022/06/18 00:49:21;;;;;;;3.70;2.90;;;;;;;14.08;75.32;101221.60;1912333;75;21055;-58
2022/06/18 00:51:56;;;;;;;5.83;3.30;;;;;;;14.03;75.19;101220.09;1911312;75;21114;-58
2022/06/18 00:54:30;;;;;;;12.03;3.98;;;;;;;14.01;74.89;101228.11;1912645;75;21497;-58
2022/06/18 00:57:04;;;;;;;6.75;3.55;;;;;;;13.98;75.57;101222.97;1912124;75;21015;-58
2022/06/18 00:59:42;;;;;;;9.83;3.72;;;;;;;13.94;75.56;101222.69;1910171;75;21067;-58
2022/06/18 01:02:13;;;;;;;9.20;3.35;;;;;;;13.93;75.72;101218.34;1903470;75;21141;-58
2022/06/18 01:04:42;;;;;;;8.30;3.02;;;;;;;13.90;75.55;101221.97;1903606;75;21036;-58
2022/06/18 01:07:23;;;;;;;7.78;3.08;;;;;;;13.85;75.98;101218.70;1903449;75;21039;-58
2022/06/18 01:09:54;;;;;;;5.50;2.87;;;;;;;13.83;75.67;101225.85;1896935;75;21510;-58
2022/06/18 01:12:25;;;;;;;8.80;3.45;;;;;;;13.84;75.48;101226.23;1903506;75;21099;-58
2022/06/18 01:14:56;;;;;;;6.28;3.05;;;;;;;13.83;75.64;101230.27;1903528;75;21542;-58
2022/06/18 01:17:27;;;;;;;8.55;3.65;;;;;;;13.79;75.73;101227.36;1903332;75;21096;-57
2022/06/18 01:19:55;;;;;;;5.03;3.40;;;;;;;13.76;75.93;101227.05;1903434;75;21039;-57
2022/06/18 01:22:34;;;;;;;7.12;2.90;;;;;;;13.70;76.19;101230.83;1903575;75;21067;-58
2022/06/18 01:25:06;;;;;;;10.30;3.20;;;;;;;13.69;76.13;101229.57;1903144;75;21113;-58
2022/06/18 01:27:38;;;;;;;6.30;3.50;;;;;;;13.69;75.95;101228.25;1903312;75;21121;-58
2022/06/18 01:30:15;;;;;;;5.65;2.60;;;;;;;13.69;75.88;101225.12;1902716;75;21071;-58
2022/06/18 01:32:47;;;;;;;11.48;6.72;;;;;;;13.70;75.73;101231.27;1903551;75;21111;-58
2022/06/18 01:35:17;;;;;;;9.83;8.35;;;;;;;13.67;76.65;101227.45;1903601;75;21033;-58
2022/06/18 01:37:51;;;;;;;14.00;6.80;;;;;;;13.62;76.99;101232.09;1896781;75;21494;-58
2022/06/18 01:40:29;;;;;;;9.78;3.85;;;;;;;13.57;76.95;101228.30;1902152;75;21132;-58
2022/06/18 01:43:01;;;;;;;4.35;2.70;;;;;;;13.55;76.84;101229.31;1903132;75;21643;-58
2022/06/18 01:45:32;;;;;;;8.90;3.92;;;;;;;13.48;77.14;101226.94;1903487;75;21574;-58
2022/06/18 01:48:07;;;;;;;8.15;3.50;;;;;;;13.43;76.73;101228.92;1903492;75;21028;-58
2022/06/18 01:50:40;;;;;;;14.73;7.65;;;;;;;13.39;76.75;101232.63;1903143;75;21079;-58
2022/06/18 01:53:17;;;;;;;17.42;11.73;;;;;;;13.39;77.24;101231.75;1903142;75;21039;-59
2022/06/18 01:55:48;;;;;;;17.77;13.38;;;;;;;13.41;77.12;101233.42;1900207;75;21113;-58
2022/06/18 01:58:20;;;;;;;22.75;17.02;;;;;;;13.45;76.93;101229.71;1903714;75;21105;-58
2022/06/18 02:00:51;;;;;;;20.88;15.00;;;;;;;13.44;77.83;101231.09;1902233;75;21051;-58
2022/06/18 02:03:20;;;;;;;23.45;16.30;;;;;;;13.47;77.97;101230.50;1903466;75;21055;-58
2022/06/18 02:05:49;;;;;;;17.40;13.28;;;;;;;13.49;78.13;101233.94;1903274;75;21540;-58
2022/06/18 02:08:20;;;;;;;15.38;12.15;;;;;;;13.54;78.10;101236.39;1903491;75;21028;-58
2022/06/18 02:10:54;;;;;;;11.15;8.03;;;;;;;13.59;78.05;101233.53;1903557;75;21212;-58
2022/06/18 02:13:26;;;;;;;9.93;5.37;;;;;;;13.68;77.79;101238.42;1903478;75;21534;-58
2022/06/18 02:15:56;;;;;;;15.50;6.58;;;;;;;13.78;77.46;101238.42;1903489;75;21044;-58
2022/06/18 02:18:27;;;;;;;8.43;4.70;;;;;;;13.84;77.27;101236.81;1903502;75;21102;-58
2022/06/18 02:20:58;;;;;;;9.58;8.40;;;;;;;13.95;76.98;101232.37;1903464;75;21113;-57
2022/06/18 02:23:27;;;;;;;10.88;9.78;;;;;;;14.07;76.82;101236.23;1903512;75;21043;-58
2022/06/18 02:25:56;;;;;;;11.10;9.58;;;;;;;14.07;76.69;101237.55;1903456;75;21043;-57
2022/06/18 02:28:32;;;;;;;12.15;10.58;;;;;;;14.10;76.71;101239.59;1903675;75;21560;-57
2022/06/18 02:31:04;;;;;;;14.60;11.15;;;;;;;14.16;76.67;101240.25;1903359;75;21526;-58
2022/06/18 02:33:41;;;;;;;13.08;10.40;;;;;;;14.28;76.49;101252.47;1903660;75;21043;-58
2022/06/18 02:36:18;;;;;;;12.85;8.00;;;;;;;14.41;76.38;101248.78;1903402;75;21063;-58
2022/06/18 02:38:50;;;;;;;6.53;4.20;;;;;;;14.53;76.03;101248.66;1903127;75;21129;-58
2022/06/18 02:41:19;;;;;;;8.00;5.03;;;;;;;14.71;75.73;101252.73;1903405;75;21051;-58
2022/06/18 02:43:48;;;;;;;8.93;3.50;;;;;;;14.88;75.36;101248.78;1903569;75;21059;-58
2022/06/18 02:46:19;;;;;;;14.05;3.52;;;;;;;14.97;74.98;101253.63;1903276;75;21094;-58
2022/06/18 02:48:49;;;;;;;5.35;3.42;;;;;;;15.05;74.55;101255.93;1903456;75;21007;-58
2022/06/18 02:51:18;;;;;;;6.72;2.60;;;;;;;15.13;74.29;101254.22;1903581;75;21044;-58
2022/06/18 02:53:48;;;;;;;8.33;3.30;;;;;;;15.27;74.21;101258.38;1903384;75;21569;-57
2022/06/18 02:56:17;;;;;;;5.45;3.12;;;;;;;15.44;74.11;101257.51;1903454;75;21039;-58
2022/06/18 02:58:48;;;;;;;8.80;5.20;;;;;;;15.67;73.91;101253.65;1903421;75;21121;-57
2022/06/18 03:01:26;;;;;;;11.97;6.85;;;;;;;15.78;72.98;101248.66;1903301;75;21055;-58
2022/06/18 03:03:57;;;;;;;9.98;6.65;;;;;;;15.87;72.65;101243.82;1903435;75;21152;-58
2022/06/18 03:06:28;;;;;;;;;;;;;;;16.06;72.32;101248.52;1906189;75;21133;-58
2022/06/18 03:08:57;;;;;;;13.32;6.62;;;;;;;16.17;72.12;101244.80;1903478;75;20107;-58
2022/06/18 03:14:18;;;;;;;13.48;4.40;;;;;;;16.43;71.22;101253.14;1903429;75;21514;-57
2022/06/18 03:16:48;;;;;;;5.95;3.85;;;;;;;16.58;71.10;101250.10;1903516;75;21525;-58
2022/06/18 03:19:38;;;;;;;10.40;6.17;;;;;;;16.75;70.87;101251.84;1903395;75;21467;-57
2022/06/18 03:22:16;;;;;;;9.13;5.42;;;;;;;16.86;70.04;101244.13;1901747;75;21591;-58
2022/06/18 03:24:45;;;;;;;8.25;4.28;;;;;;;16.97;69.96;101245.69;1903399;75;21050;-59
2022/06/18 03:27:16;;;;;;;7.12;4.00;;;;;;;17.10;69.66;101248.50;1903411;75;21130;-58
2022/06/18 03:29:47;;;;;;;5.70;4.10;;;;;;;17.26;69.57;101258.23;1903468;75;21146;-58
2022/06/18 03:32:16;;;;;;;7.85;3.60;;;;;;;17.43;69.40;101249.24;1903427;75;21543;-58
2022/06/18 03:34:45;;;;;;;5.50;3.95;;;;;;;17.48;68.90;101249.34;1903418;75;21055;-58
2022/06/18 03:37:13;;;;;;;4.87;2.12;;;;;;;17.52;68.71;101244.70;1903393;75;21063;-58
2022/06/18 03:39:42;;;;;;;5.83;2.17;;;;;;;17.65;68.72;101248.81;1903340;75;21099;-58
2022/06/18 03:42:10;;;;;;;4.85;2.15;;;;;;;17.62;68.03;101249.02;1903415;75;21105;-58
2022/06/18 03:44:40;;;;;;;5.17;2.27;;;;;;;17.59;67.59;101247.86;1903561;75;21079;-59
2022/06/18 03:47:09;;;;;;;12.70;4.25;;;;;;;17.70;67.74;101251.57;1903347;75;21510;-58
2022/06/18 03:49:39;;;;;;;8.73;3.20;;;;;;;17.90;67.88;101256.20;1880812;75;21079;-58
2022/06/18 03:52:10;;;;;;;9.38;3.58;;;;;;;18.18;67.89;101255.81;1903276;75;21105;-59
2022/06/18 03:54:39;;;;;;;3.67;2.22;;;;;;;18.46;67.82;101246.45;1903311;75;21027;-58
2022/06/18 03:57:10;;;;;;;5.53;2.72;;;;;;;18.81;67.75;101247.34;1903314;75;21117;-58
2022/06/18 03:59:39;;;;;;;9.83;3.00;;;;;;;19.13;67.50;101245.67;1903272;75;21012;-58
2022/06/18 04:02:07;;;;;;;5.08;2.87;;;;;;;19.42;67.12;101250.84;1903249;75;21533;-58
2022/06/18 04:04:38;;;;;;;8.60;2.10;;;;;;;19.66;66.47;101243.83;1902372;75;21475;-58
2022/06/18 04:07:07;;;;;;;10.25;2.33;;;;;;;19.90;66.08;101252.47;1903278;75;21380;-58
2022/06/18 04:09:43;;;;;;;3.75;1.95;;;;;;;20.16;65.64;101253.29;1902661;75;21070;-58
2022/06/18 04:12:13;;;;;;;4.30;1.92;;;;;;;20.46;65.04;101250.70;1902547;75;21121;-58
2022/06/18 04:15:00;;;;;;;4.67;2.47;;;;;;;20.71;64.58;101244.45;1903143;75;21125;-58
2022/06/18 04:17:33;;;;;;;11.73;4.35;;;;;;;20.99;63.81;101241.91;1902408;75;21086;-58
2022/06/18 04:20:01;;;;;;;8.45;2.20;;;;;;;21.17;62.78;101243.69;1903505;75;21055;-58
2022/06/18 04:22:31;;;;;;;8.13;2.62;;;;;;;21.43;62.41;101246.17;1903487;75;21494;-58
2022/06/18 04:25:03;;;;;;;;;;;;;;;21.76;61.75;101245.90;1905850;75;21059;-58
2022/06/18 04:27:32;;;;;;;5.45;1.92;;;;;;;22.17;61.94;101241.29;1903394;75;20119;-59
2022/06/18 04:30:01;;;;;;;6.40;2.37;;;;;;;22.57;61.18;101243.09;1903501;75;21091;-59
2022/06/18 04:32:31;;;;;;;5.78;2.42;;;;;;;22.95;60.51;101250.66;1900861;75;21132;-58
2022/06/18 04:35:00;;;;;;;5.80;1.87;;;;;;;23.34;59.98;101243.44;1903518;75;21035;-58
2022/06/18 04:37:30;;;;;;;5.78;2.20;;;;;;;23.70;59.54;101246.14;1900721;75;21058;-59
2022/06/18 04:40:07;;;;;;;7.30;1.55;;;;;;;24.04;58.71;101244.05;1901167;75;21067;-59
2022/06/18 04:42:37;;;;;;;2.50;1.50;;;;;;;24.42;58.05;101246.53;1900146;75;21062;-58
2022/06/18 04:45:07;;;;;;;5.53;2.10;;;;;;;24.76;57.30;101250.22;1903575;75;21063;-58
2022/06/18 04:47:37;;;;;;;5.33;1.90;;;;;;;25.03;56.26;101248.19;1900393;75;21132;-58
2022/06/18 04:50:09;;;;;;;2.08;1.65;;;;;;;25.27;55.52;101244.24;1903668;75;21573;-58
2022/06/18 04:52:38;;;;;;;3.40;1.62;;;;;;;25.56;55.05;101246.89;1903360;75;21204;-58
2022/06/18 04:55:08;;;;;;;3.12;1.95;;;;;;;25.83;54.26;101243.89;1903501;75;21047;-59
2022/06/18 04:57:37;;;;;;;4.45;1.92;;;;;;;26.00;53.28;101244.98;1903497;75;21059;-59
2022/06/18 05:00:07;;;;;;;4.60;1.55;;;;;;;26.12;52.51;101247.02;1903536;75;21087;-59
2022/06/18 05:02:38;;;;;;;8.38;1.72;;;;;;;26.15;51.87;101252.09;1900100;75;21119;-58
2022/06/18 05:05:17;;;;;;;1.70;1.40;;;;;;;26.13;51.66;101252.23;1901913;75;21548;-59
2022/06/18 05:08:04;;;;;;;4.67;1.30;;;;;;;25.98;51.51;101255.08;1903402;75;21513;-58
2022/06/18 05:10:50;;;;;;;3.33;1.92;;;;;;;26.33;51.11;101257.55;1903423;75;21067;-58
2022/06/18 05:13:29;;;;;;;1.82;1.32;;;;;;;26.88;50.77;101257.50;1901343;75;21047;-58
2022/06/18 05:16:09;;;;;;;3.87;2.27;;;;;;;27.40;50.26;101254.60;1900364;75;21066;-59
2022/06/18 05:18:39;;;;;;;4.05;1.72;;;;;;;27.89;49.23;101253.57;1903480;75;21531;-58
2022/06/18 05:21:08;;;;;;;5.85;2.25;;;;;;;28.22;48.65;101258.66;1903215;75;21071;-58
2022/06/18 05:23:37;;;;;;;4.47;1.60;;;;;;;28.52;48.12;101256.91;1903559;75;21526;-58
2022/06/18 05:26:09;;;;;;;2.72;1.30;;;;;;;28.47;47.66;101256.87;1903640;75;21585;-58
2022/06/18 05:28:38;;;;;;;1.82;1.35;;;;;;;28.29;47.24;101257.48;1903303;75;21059;-58
2022/06/18 05:31:06;;;;;;;5.25;1.55;;;;;;;28.15;46.95;101251.36;1903530;75;21040;-58
2022/06/18 05:33:35;;;;;;;3.20;1.90;;;;;;;28.64;46.63;101247.46;1903554;75;21130;-59
2022/06/18 05:36:06;;;;;;;2.70;1.70;;;;;;;29.16;45.93;101252.65;1903363;75;21584;-59
2022/06/18 05:38:36;;;;;;;3.17;1.60;;;;;;;29.24;45.20;101240.95;1903388;75;21591;-59
2022/06/18 05:41:04;;;;;;;7.37;1.98;;;;;;;29.29;44.48;101249.42;1903503;75;21027;-58
2022/06/18 05:43:33;;;;;;;4.62;1.80;;;;;;;29.83;43.82;101254.27;1903623;75;21035;-60
2022/06/18 05:46:02;;;;;;;4.62;1.60;;;;;;;30.37;43.33;101254.41;1903521;75;21011;-59
2022/06/18 05:48:30;;;;;;;2.83;1.65;;;;;;;30.82;42.11;101253.80;1903403;75;21506;-59
2022/06/18 05:50:59;;;;;;;4.78;1.30;;;;;;;30.81;40.77;101249.41;1903395;75;21184;-59
2022/06/18 05:53:28;;;;;;;2.37;1.40;;;;;;;30.31;40.25;101252.38;1903477;75;21063;-59
2022/06/18 05:56:15;;;;;;;3.22;1.45;;;;;;;29.69;38.86;101247.64;1903378;75;21141;-59
2022/06/18 05:58:48;;;;;;;9.48;1.72;;;;;;;29.28;39.12;101250.42;1896487;75;21036;-58
2022/06/18 06:01:22;;;;;;;5.85;1.67;;;;;;;29.05;39.53;101250.25;1903104;75;21091;-58
2022/06/18 06:03:51;;;;;;;3.52;1.80;;;;;;;29.12;39.67;101247.17;1908160;75;21059;-58
2022/06/18 06:06:19;;;;;;;2.72;1.32;;;;;;;28.96;39.65;101247.19;1912599;75;21012;-58
2022/06/18 06:08:48;;;;;;;5.87;1.85;;;;;;;28.65;39.42;101245.95;1912578;75;21039;-58
2022/06/18 06:11:29;;;;;;;3.77;1.40;;;;;;;28.46;39.48;101248.41;1912614;75;21015;-58
2022/06/18 06:14:01;;;;;;;3.75;1.90;;;;;;;28.84;39.51;101246.14;1912107;75;21162;-58
2022/06/18 06:16:31;;;;;;;3.00;1.60;;;;;;;28.83;39.65;101246.33;1912806;75;21085;-59
2022/06/18 06:19:02;;;;;;;2.95;1.55;;;;;;;29.25;39.75;101240.78;1912355;75;21612;-58
2022/06/18 06:21:30;;;;;;;3.17;1.60;;;;;;;29.80;39.43;101240.52;1912652;75;21082;-58
2022/06/18 06:23:59;;;;;;;3.30;1.70;;;;;;;29.88;39.23;101236.96;1912803;75;21042;-58
2022/06/18 06:26:31;;;;;;;3.10;1.57;;;;;;;30.32;39.13;101235.08;1912510;75;21689;-58
2022/06/18 06:29:00;;;;;;;7.00;1.30;;;;;;;30.73;37.54;101236.20;1912943;75;21027;-58
2022/06/18 06:31:30;;;;;;;2.77;1.20;;;;;;;30.88;36.99;101234.07;1912624;75;21113;-59
2022/06/18 06:33:58;;;;;;;4.12;1.50;;;;;;;31.13;36.43;101238.31;1912825;75;21469;-58
2022/06/18 06:36:27;;;;;;;5.60;1.40;;;;;;;31.59;36.28;101233.81;1912718;75;21023;-58
2022/06/18 06:38:56;;;;;;;2.45;1.52;;;;;;;31.89;35.56;101234.66;1912467;75;21654;-58
2022/06/18 06:41:27;;;;;;;7.30;1.40;;;;;;;31.91;34.94;101232.62;1912615;75;21047;-58
2022/06/18 06:43:55;;;;;;;6.58;1.50;;;;;;;32.18;34.90;101232.45;1912627;75;21517;-58
2022/06/18 06:46:24;;;;;;;4.37;1.70;;;;;;;32.38;34.61;101234.58;1912752;75;21105;-58
2022/06/18 06:48:52;;;;;;;2.10;1.20;;;;;;;32.45;33.69;101225.97;1912615;75;21035;-58
2022/06/18 06:51:27;;;;;;;3.00;1.52;;;;;;;32.57;33.51;101178.59;1912513;75;21039;-58
2022/06/18 06:53:55;;;;;;;5.83;1.70;;;;;;;32.93;32.80;101215.36;1912526;75;21093;-59
2022/06/18 06:59:11;;;;;;;2.50;1.60;;;;;;;32.81;32.24;101221.01;1912583;75;21529;-58
2022/06/18 07:01:40;;;;;;;4.75;1.87;;;;;;;32.52;31.96;101218.71;1912628;75;21755;-59
2022/06/18 07:04:11;;;;;;;3.12;1.50;;;;;;;32.47;31.79;101212.46;1909437;75;21076;-58
2022/06/18 07:06:41;;;;;;;2.83;1.47;;;;;;;32.77;31.92;101219.72;1903733;75;21059;-58
2022/06/18 07:09:10;;;;;;;4.22;1.70;;;;;;;33.09;31.72;101214.25;1903521;75;21003;-58
2022/06/18 07:11:39;;;;;;;6.80;1.70;;;;;;;33.38;31.75;101213.22;1903402;75;21004;-58
2022/06/18 07:14:07;;;;;;;2.60;1.35;;;;;;;33.62;31.14;101213.80;1903373;75;21023;-58
2022/06/18 07:16:38;;;;;;;5.17;1.60;;;;;;;33.47;30.25;101218.84;1903440;75;21112;-58
2022/06/18 07:19:10;;;;;;;2.42;1.40;;;;;;;33.49;30.21;101217.81;1901812;75;21475;-58
2022/06/18 07:21:38;;;;;;;3.50;1.52;;;;;;;33.50;29.63;101218.98;1903550;75;21020;-58
2022/06/18 07:24:07;;;;;;;4.62;1.60;;;;;;;33.07;30.45;101219.91;1903431;75;21023;-58
2022/06/18 07:26:36;;;;;;;2.62;1.95;;;;;;;33.07;30.45;101219.91;1903476;75;21082;-60
2022/06/18 07:29:04;;;;;;;3.30;1.50;;;;;;;32.97;30.16;101209.00;1903351;75;21152;-58
2022/06/18 07:31:35;;;;;;;6.78;1.82;;;;;;;33.31;29.72;101216.45;1903395;75;21546;-58
2022/06/18 07:34:06;;;;;;;3.75;1.52;;;;;;;33.31;29.72;101185.07;1903549;75;21039;-58
2022/06/18 07:36:35;;;;;;;2.60;1.20;;;;;;;33.38;29.49;101213.22;1903390;75;21035;-58
2022/06/18 07:39:04;;;;;;;4.37;1.50;;;;;;;33.40;29.31;101215.26;1903430;75;21545;-58
2022/06/18 07:41:38;;;;;;;2.87;1.40;;;;;;;33.40;29.31;101215.26;1903364;75;21595;-58
2022/06/18 07:44:07;;;;;;;5.85;1.47;;;;;;;33.55;29.27;101212.91;1903094;75;21105;-58
2022/06/18 07:46:36;;;;;;;5.72;1.32;;;;;;;34.04;28.63;101209.22;1903384;75;21094;-58
2022/06/18 07:49:05;;;;;;;2.30;1.40;;;;;;;34.04;28.63;101209.22;1903322;75;21093;-58
2022/06/18 07:51:34;;;;;;;5.92;1.75;;;;;;;33.92;28.62;101220.39;1903380;75;21551;-58
2022/06/18 07:54:03;;;;;;;2.35;1.50;;;;;;;33.97;28.31;101213.27;1903504;75;21195;-58
2022/06/18 07:56:32;;;;;;;6.12;1.50;;;;;;;34.27;27.92;101212.16;1903515;75;21133;-58
2022/06/18 07:59:01;;;;;;;3.02;1.40;;;;;;;34.14;27.86;101217.02;1903662;75;21039;-58
2022/06/18 08:01:30;;;;;;;2.20;1.30;;;;;;;33.49;26.90;101220.55;1903501;75;21040;-58
2022/06/18 08:03:59;;;;;;;3.62;1.65;;;;;;;32.69;27.12;101222.89;1903471;75;21063;-58
2022/06/18 08:06:29;;;;;;;3.95;1.40;;;;;;;32.47;27.61;101218.44;1912398;75;21145;-58
2022/06/18 08:08:58;;;;;;;3.40;1.60;;;;;;;32.97;27.25;101211.20;1912741;75;21039;-59
2022/06/18 08:11:29;;;;;;;2.35;1.45;;;;;;;33.43;27.01;101210.74;1912708;75;21552;-58
2022/06/18 08:13:58;;;;;;;2.92;1.60;;;;;;;33.88;26.63;101209.56;1912694;75;21086;-58
2022/06/18 08:16:27;;;;;;;3.05;1.65;;;;;;;34.09;26.45;101203.98;1912652;75;21595;-58
2022/06/18 08:18:56;;;;;;;5.40;2.05;;;;;;;34.48;26.25;101205.72;1912556;75;21022;-58
2022/06/18 08:21:28;;;;;;;6.03;1.77;;;;;;;34.37;25.76;101200.33;1912666;75;21109;-58
2022/06/18 08:23:59;;;;;;;4.70;1.98;;;;;;;34.13;25.29;101204.42;1912873;75;21493;-59
2022/06/18 08:26:28;;;;;;;5.47;1.70;;;;;;;33.77;25.27;101205.02;1912891;75;21105;-58
2022/06/18 08:28:57;;;;;;;3.45;1.67;;;;;;;33.38;25.53;101202.30;1912636;75;21501;-59
2022/06/18 08:31:26;;;;;;;3.75;1.50;;;;;;;32.98;25.72;101203.84;1912567;75;21038;-58
2022/06/18 08:33:56;;;;;;;5.55;1.65;;;;;;;32.76;25.67;101201.66;1912728;75;21007;-59
2022/06/18 08:36:25;;;;;;;4.37;1.65;;;;;;;32.93;25.55;101203.63;1912673;75;21137;-59
2022/06/18 08:38:55;;;;;;;4.30;1.70;;;;;;;33.25;24.77;101202.22;1912646;75;21469;-60
2022/06/18 08:41:45;;;;;;;2.72;1.57;;;;;;;33.82;24.69;101203.86;1912657;75;21632;-58
2022/06/18 08:44:31;;;;;;;4.45;1.85;;;;;;;34.36;24.11;101190.42;1912739;75;21035;-59
2022/06/18 08:47:26;;;;;;;4.62;1.30;;;;;;;34.36;24.11;101190.42;1912630;75;21457;-59
2022/06/18 08:50:09;;;;;;;4.90;1.90;;;;;;;34.60;24.40;101195.83;1912587;75;21448;-59
2022/06/18 08:53:09;;;;;;;4.42;1.60;;;;;;;34.59;23.93;101190.90;1872088;75;21038;-59
2022/06/18 08:55:44;;;;;;;2.58;1.50;;;;;;;34.87;23.97;101187.70;1890036;75;21474;-61
2022/06/18 08:58:33;;;;;;;1.72;1.27;;;;;;;34.40;23.75;101183.52;1912664;75;21442;-59
2022/06/18 09:01:13;;;;;;;5.45;1.77;;;;;;;34.55;24.13;101180.60;1886838;75;21043;-58
2022/06/18 09:03:48;;;;;;;2.50;1.70;;;;;;;35.02;24.13;101186.13;1907058;75;21184;-58
2022/06/18 09:06:40;;;;;;;3.52;1.62;;;;;;;34.03;25.21;101172.87;1906850;75;21384;-58
2022/06/18 09:09:10;;;;;;;;;;;;;;;34.03;25.21;101172.87;1888994;75;21565;-58
2022/06/18 09:11:59;;;;;;;4.95;1.47;;;;;;;33.89;25.39;101177.95;1902891;75;20123;-58
2022/06/18 09:14:53;;;;;;;3.70;1.70;;;;;;;34.41;25.30;101170.16;1903495;75;21113;-58
2022/06/18 09:17:24;;;;;;;2.40;1.40;;;;;;;34.92;25.16;101170.14;1903379;75;21216;-58
2022/06/18 09:20:08;;;;;;;3.90;1.57;;;;;;;34.88;24.00;101172.45;1903702;75;21196;-58
2022/06/18 09:22:39;;;;;;;2.22;1.37;;;;;;;34.97;24.15;101165.72;1903464;75;22180;-58
2022/06/18 09:25:17;;;;;;;4.70;2.00;;;;;;;35.22;24.12;101163.71;1898386;75;21568;-58
2022/06/18 09:27:54;;;;;;;5.30;1.70;;;;;;;35.33;24.12;101163.59;1903335;75;21629;-58
2022/06/18 09:30:35;;;;;;;2.40;1.35;;;;;;;35.27;24.12;101159.81;1900108;75;21036;-58
2022/06/18 09:33:07;;;;;;;3.62;1.70;;;;;;;35.40;24.36;101156.20;1903471;75;21035;-58
2022/06/18 09:35:53;;;;;;;3.45;1.45;;;;;;;35.53;24.42;101155.33;1902844;75;21498;-58
2022/06/18 09:38:28;;;;;;;2.15;1.50;;;;;;;35.47;23.70;101157.54;1903467;75;21024;-58
2022/06/18 09:41:02;;;;;;;5.17;2.65;;;;;;;35.38;23.52;101150.11;1902920;75;21600;-60
2022/06/18 09:44:06;;;;;;;8.30;1.77;;;;;;;35.48;23.58;101156.49;1902936;75;21820;-59
2022/06/18 09:46:46;;;;;;;4.45;1.22;;;;;;;35.31;23.34;101161.59;1903456;75;21220;-59
2022/06/18 09:49:15;;;;;;;3.98;1.27;;;;;;;34.95;23.33;101155.52;1897575;75;21109;-58
2022/06/18 09:52:00;;;;;;;2.20;1.40;;;;;;;34.63;23.02;101154.95;1903469;75;21104;-58
2022/06/18 09:54:28;;;;;;;5.25;1.60;;;;;;;33.75;23.50;101149.72;1902099;75;21047;-58
2022/06/18 09:57:00;;;;;;;2.37;1.30;;;;;;;33.35;23.65;101148.14;1903690;75;21168;-58
2022/06/18 09:59:40;;;;;;;1.42;1.32;;;;;;;33.58;23.88;101150.56;1903482;75;21087;-59
2022/06/18 10:02:17;;;;;;;3.62;1.57;;;;;;;33.58;23.88;101150.56;1903453;75;21572;-58
2022/06/18 10:07:38;;;;;;;2.98;1.57;;;;;;;34.08;23.43;101093.53;1911706;75;21047;-58
2022/06/18 10:10:15;;;;;;;2.67;1.40;;;;;;;34.28;23.79;101126.41;1912857;75;21075;-58
2022/06/18 10:12:56;;;;;;;6.28;1.95;;;;;;;34.35;23.82;101142.30;1912634;75;21125;-58
2022/06/18 10:15:26;;;;;;;5.30;1.80;;;;;;;34.10;23.44;101138.72;1912637;75;21035;-59
2022/06/18 10:18:10;;;;;;;2.52;1.42;;;;;;;33.57;23.97;101126.19;1912581;75;21543;-59
2022/06/18 10:20:57;;;;;;;2.62;1.60;;;;;;;33.57;23.97;101126.19;1912640;75;21043;-58
2022/06/18 10:23:44;;;;;;;2.42;1.50;;;;;;;33.30;23.72;101141.60;1912571;75;21036;-58
2022/06/18 10:26:24;;;;;;;4.53;1.50;;;;;;;33.37;24.07;101139.45;1912717;75;21113;-59
2022/06/18 10:29:02;;;;;;;2.17;1.40;;;;;;;33.60;24.02;101139.45;1912757;75;21113;-59
2022/06/18 10:31:42;;;;;;;5.10;1.80;;;;;;;33.60;23.82;101133.98;1912328;75;21031;-59
2022/06/18 10:34:39;;;;;;;6.35;1.42;;;;;;;33.53;23.66;101127.65;1912533;75;21039;-59
2022/06/18 10:37:20;;;;;;;8.98;1.82;;;;;;;33.42;23.80;101139.48;1912608;75;21152;-58
2022/06/18 10:40:04;;;;;;;4.83;1.70;;;;;;;33.16;23.63;101136.03;1912572;75;21039;-58
2022/06/18 10:42:44;;;;;;;3.80;1.60;;;;;;;32.96;23.95;101131.80;1912439;75;21046;-57
2022/06/18 10:45:37;;;;;;;1.90;1.27;;;;;;;32.86;23.99;101127.19;1911098;75;21608;-59
2022/06/18 10:48:14;;;;;;;4.47;1.50;;;;;;;32.39;24.05;101136.80;1912679;75;21505;-57
2022/06/18 10:50:55;;;;;;;4.50;1.57;;;;;;;31.90;24.32;101127.44;1912669;75;21031;-57
2022/06/18 10:53:27;;;;;;;2.30;1.30;;;;;;;31.42;24.75;101127.00;1912630;75;21556;-58
2022/06/18 10:56:04;;;;;;;5.33;1.87;;;;;;;31.01;25.04;101128.28;1913121;75;21046;-58
2022/06/18 10:58:33;;;;;;;4.53;1.98;;;;;;;30.65;25.32;101128.90;1912600;75;21023;-58
2022/06/18 11:01:07;;;;;;;4.12;1.80;;;;;;;30.43;25.81;101132.48;1912781;75;21212;-58
2022/06/18 11:03:36;;;;;;;2.60;2.02;;;;;;;30.29;26.00;101122.70;1911786;75;21172;-58
2022/06/18 11:06:14;;;;;;;3.22;1.75;;;;;;;30.50;25.95;101132.92;1912492;75;21059;-58
2022/06/18 11:08:54;;;;;;;4.60;1.82;;;;;;;30.81;25.98;101127.09;1903424;75;21067;-58
2022/06/18 11:11:36;;;;;;;4.37;1.42;;;;;;;31.18;25.90;101125.70;1903383;75;21129;-58
2022/06/18 11:14:16;;;;;;;2.87;1.50;;;;;;;31.08;25.89;101130.59;1903381;75;21075;-58
2022/06/18 11:16:47;;;;;;;4.22;1.42;;;;;;;30.76;25.86;101129.81;1902636;75;21530;-58
2022/06/18 11:19:31;;;;;;;6.17;1.82;;;;;;;30.76;25.95;101126.27;1903402;75;21110;-58
2022/06/18 11:22:20;;;;;;;4.25;1.40;;;;;;;30.95;26.09;101123.56;1903479;75;21121;-59
2022/06/18 11:24:55;;;;;;;7.87;1.45;;;;;;;30.95;26.18;101124.92;1903578;75;21040;-58
2022/06/18 11:27:26;;;;;;;17.90;7.83;;;;;;;30.64;26.32;101124.51;1902741;75;21564;-58
2022/06/18 11:29:56;;;;;;;6.40;1.50;;;;;;;30.25;26.52;101120.02;1903525;75;21486;-58
2022/06/18 11:32:37;;;;;;;4.97;1.85;;;;;;;29.82;26.96;101123.64;1903543;75;21502;-59
2022/06/18 11:35:11;;;;;;;2.52;1.57;;;;;;;29.54;27.38;101125.42;1903707;75;21051;-58
2022/06/18 11:37:40;;;;;;;4.87;1.60;;;;;;;29.37;27.74;101119.22;1902538;75;21110;-58
2022/06/18 11:40:12;;;;;;;6.40;1.52;;;;;;;29.20;27.89;101121.13;1903546;75;21490;-58
2022/06/18 11:42:59;;;;;;;2.27;1.45;;;;;;;29.03;27.94;101117.58;1903553;75;21431;-58
2022/06/18 11:45:30;;;;;;;3.98;1.47;;;;;;;29.11;27.95;101118.07;1903608;75;21039;-58
2022/06/18 11:48:34;;;;;;;5.95;1.52;;;;;;;29.15;27.94;101115.89;1903433;75;21071;-58
2022/06/18 11:51:05;;;;;;;;;;;;;;;28.94;28.02;101117.73;1906320;75;21522;-58
2022/06/18 11:53:39;;;;;;;6.72;1.80;;;;;;;28.97;28.18;101111.98;1903544;75;20363;-59
2022/06/18 11:56:16;;;;;;;4.80;1.52;;;;;;;29.18;28.20;101098.77;1903522;75;21495;-59
2022/06/18 11:58:48;;;;;;;4.20;1.57;;;;;;;29.39;27.92;101102.77;1902178;75;21110;-59
2022/06/18 12:01:22;;;;;;;3.02;1.70;;;;;;;29.57;27.91;101106.09;1903332;75;21192;-59
2022/06/18 12:03:56;;;;;;;4.97;2.08;;;;;;;29.68;27.85;101102.64;1902605;75;21059;-59